Time;durP1;ratioP1;P1;durP2;ratioP2;P2;SDS_P1;SDS_P2;PMS_P1;PMS_P2;Temp;Humidity;BMP_temperature;BMP_pressure;BME280_temperature;BME280_humidity;BME280_pressure;Samples;Min_cycle;Max_cycle;Signal;HPM_P1;HPM_P2
2022/10/27 00:00:25;;;;;;;;;3.75;3.75;;;;;18.70;64.10;101158.78;4956615;28;46583;-77
2022/10/27 00:06:12;;;;;;;;;3.00;2.25;;;;;18.65;64.23;101163.69;4955654;28;45829;-78
2022/10/27 00:08:38;;;;;;;;;3.00;3.00;;;;;18.59;64.34;101157.16;4956513;28;45751;-76
2022/10/27 00:11:06;;;;;;;;;2.75;2.75;;;;;18.56;64.01;101159.28;4956254;28;46571;-76
2022/10/27 00:13:31;;;;;;;;;2.50;2.50;;;;;18.56;63.85;101162.78;4956471;28;46422;-78
2022/10/27 00:15:58;;;;;;;;;3.00;2.75;;;;;18.57;64.00;101166.25;4956422;28;45701;-77
2022/10/27 00:21:45;;;;;;;;;2.00;2.00;;;;;18.58;64.14;101187.34;4954145;28;45693;-77
2022/10/27 00:24:10;;;;;;;;;3.00;3.00;;;;;18.55;63.79;101181.50;4952851;28;47196;-75
2022/10/27 00:26:36;;;;;;;;;2.75;2.00;;;;;18.55;63.83;101184.16;4955069;28;45934;-77
2022/10/27 00:29:01;;;;;;;;;3.00;2.00;;;;;18.54;64.04;101178.00;4955957;28;45853;-77
2022/10/27 00:31:27;;;;;;;;;10.00;9.25;;;;;18.50;64.40;101178.41;4955304;28;45643;-77
2022/10/27 00:33:52;;;;;;;;;7.00;6.00;;;;;18.52;64.14;101176.44;4956220;28;47184;-77
2022/10/27 00:36:20;;;;;;;;;4.75;4.25;;;;;18.52;64.47;101176.44;4956310;28;45668;-76
2022/10/27 00:38:46;;;;;;;;;3.00;3.00;;;;;18.47;64.22;101168.91;4956437;28;45910;-77
2022/10/27 00:41:37;;;;;;;;;4.00;2.25;;;;;18.50;64.22;101165.97;4956242;28;46694;-77
2022/10/27 00:44:30;;;;;;;;;3.00;2.25;;;;;18.51;63.87;101166.81;4956280;28;46744;-78
2022/10/27 00:46:57;;;;;;;;;2.00;2.00;;;;;18.49;64.06;101163.47;4955981;28;45687;-77
2022/10/27 00:49:27;;;;;;;;;2.75;2.25;;;;;18.49;64.28;101169.59;4956203;28;45779;-76
2022/10/27 00:51:57;;;;;;;;;3.50;3.50;;;;;18.49;64.33;101174.06;4956322;28;45880;-77
2022/10/27 00:54:27;;;;;;;;;3.25;3.25;;;;;18.45;63.84;101171.72;4956155;28;47366;-77
2022/10/27 00:56:54;;;;;;;;;4.00;3.00;;;;;18.45;64.51;101163.78;4955749;28;45579;-77
2022/10/27 00:59:22;;;;;;;;;3.00;2.00;;;;;18.44;64.44;101164.75;4955975;28;45760;-78
2022/10/27 01:01:50;;;;;;;;;4.50;3.75;;;;;18.37;64.09;101149.53;4955235;28;47432;-78
2022/10/27 01:04:20;;;;;;;;;3.00;2.00;;;;;18.40;64.52;101160.72;4954530;28;47860;-76
2022/10/27 01:06:46;;;;;;;;;2.00;2.00;;;;;18.35;64.70;101146.22;4955876;28;45835;-77
2022/10/27 01:09:12;;;;;;;;;3.00;3.00;;;;;18.39;64.50;101151.09;4955295;28;46487;-78
2022/10/27 01:11:39;;;;;;;;;3.25;2.75;;;;;18.36;64.34;101156.66;4954271;28;48308;-77
2022/10/27 01:14:04;;;;;;;;;3.00;2.00;;;;;18.32;64.29;101152.63;4955988;28;45681;-77
2022/10/27 01:16:30;;;;;;;;;1.75;1.75;;;;;18.35;64.69;101157.63;4955949;28;46095;-77
2022/10/27 01:22:48;;;;;;;;;2.00;2.00;;;;;18.31;64.41;101156.25;4955468;28;45968;-75
2022/10/27 01:25:46;;;;;;;;;4.00;4.00;;;;;18.25;64.49;101140.94;4954318;28;46036;-77
2022/10/27 01:28:44;;;;;;;;;2.25;2.00;;;;;18.29;64.32;101142.34;4955892;28;45724;-75
2022/10/27 01:31:13;;;;;;;;;3.00;2.25;;;;;18.25;64.82;101142.75;4939613;28;45628;-77
2022/10/27 01:33:55;;;;;;;;;2.50;2.00;;;;;18.15;64.49;101131.34;4955265;28;45613;-75
2022/10/27 01:36:36;;;;;;;;;2.00;2.00;;;;;18.20;64.27;101129.06;4955583;28;46681;-76
2022/10/27 01:39:07;;;;;;;;;4.00;3.00;;;;;18.13;64.90;101131.50;4955484;28;45712;-76
2022/10/27 01:41:40;;;;;;;;;2.00;2.00;;;;;18.15;64.34;101150.75;4955738;28;45756;-75
2022/10/27 01:44:12;;;;;;;;;2.75;2.75;;;;;18.06;64.52;101133.03;4955585;28;46704;-76
2022/10/27 01:46:39;;;;;;;;;3.00;2.25;;;;;18.09;64.97;101137.22;4955641;28;46771;-76
2022/10/27 01:49:06;;;;;;;;;3.75;2.75;;;;;18.10;64.97;101137.06;4954951;28;45521;-76
2022/10/27 01:51:32;;;;;;;;;2.00;2.00;;;;;18.09;64.55;101139.88;4955309;28;45836;-76
2022/10/27 01:53:58;;;;;;;;;2.00;2.00;;;;;18.03;64.96;101141.28;4955163;28;46573;-77
2022/10/27 01:56:29;;;;;;;;;2.25;2.00;;;;;18.04;64.83;101137.66;4955234;28;45616;-76
2022/10/27 01:59:04;;;;;;;;;2.00;2.00;;;;;18.01;64.77;101138.78;4954746;28;45828;-77
2022/10/27 02:05:05;;;;;;;;;2.25;2.00;;;;;17.96;64.99;101135.72;4955041;28;45756;-78
2022/10/27 02:08:01;;;;;;;;;2.50;2.00;;;;;17.94;65.24;101127.06;4955102;28;45676;-77
2022/10/27 02:10:34;;;;;;;;;3.00;3.00;;;;;17.91;65.13;101122.06;4954760;28;45718;-77
2022/10/27 02:12:59;;;;;;;;;2.50;2.50;;;;;17.91;65.24;101119.41;4954677;28;45574;-77
2022/10/27 02:15:35;;;;;;;;;3.00;2.00;;;;;17.88;64.84;101125.00;4954539;28;46942;-77
2022/10/27 02:21:24;;;;;;;;;4.00;2.00;;;;;17.83;64.91;101107.84;4954695;28;45703;-77
2022/10/27 02:23:50;;;;;;;;;3.00;3.00;;;;;17.85;64.94;101119.16;4956224;28;45673;-76
2022/10/27 02:26:40;;;;;;;;;2.00;2.00;;;;;17.84;65.20;101118.31;4957984;28;45979;-77
2022/10/27 02:29:35;;;;;;;;;2.50;2.25;;;;;17.84;64.85;101112.19;4958700;28;46350;-77
2022/10/27 02:32:05;;;;;;;;;3.00;3.00;;;;;17.83;65.22;101107.84;4936928;28;46115;-78
2022/10/27 02:37:56;;;;;;;;;3.00;2.00;;;;;17.79;65.36;101099.34;4954136;28;46111;-77
2022/10/27 02:40:22;;;;;;;;;3.00;2.00;;;;;17.81;65.15;101094.75;4953042;28;48032;-76
2022/10/27 02:42:47;;;;;;;;;0.25;0.00;;;;;17.79;64.88;101093.22;4954389;28;45635;-76
2022/10/27 02:45:13;;;;;;;;;3.75;1.25;;;;;17.80;65.24;101094.88;4937101;28;45916;-77
2022/10/27 02:47:38;;;;;;;;;2.00;2.00;;;;;17.78;64.78;101091.53;4954085;28;47791;-76
2022/10/27 02:50:04;;;;;;;;;3.25;3.25;;;;;17.78;65.51;101092.38;4954341;28;46151;-77
2022/10/27 02:52:29;;;;;;;;;3.00;2.25;;;;;17.72;65.50;101100.06;4954603;28;45628;-77
2022/10/27 02:54:54;;;;;;;;;3.25;2.00;;;;;17.71;64.83;101101.88;4954642;28;45781;-77
2022/10/27 02:57:20;;;;;;;;;4.00;2.00;;;;;17.68;65.18;101098.69;4954093;28;47538;-78
2022/10/27 02:59:47;;;;;;;;;3.00;2.00;;;;;17.67;64.77;101102.31;4954341;28;46018;-77
2022/10/27 03:02:12;;;;;;;;;2.50;2.50;;;;;17.64;64.96;101099.94;4954251;28;45762;-77
2022/10/27 03:07:59;;;;;;;;;3.00;2.75;;;;;17.58;65.20;101101.31;4951947;28;45848;-77
2022/10/27 03:10:24;;;;;;;;;2.25;1.75;;;;;17.54;65.01;101086.69;4953819;28;46495;-78
2022/10/27 03:12:49;;;;;;;;;2.00;1.50;;;;;17.54;65.46;101097.28;4953823;28;46107;-77
2022/10/27 03:15:15;;;;;;;;;3.00;2.00;;;;;17.53;65.44;101091.16;4953991;28;45613;-76
2022/10/27 03:17:45;;;;;;;;;1.50;1.00;;;;;17.54;65.51;101081.41;4953389;28;47227;-77
2022/10/27 03:23:33;;;;;;;;;4.00;3.50;;;;;17.50;65.32;101090.56;4953880;28;45609;-78
2022/10/27 03:25:59;;;;;;;;;3.00;2.75;;;;;17.48;65.48;101090.75;4953772;28;45779;-77
2022/10/27 03:28:24;;;;;;;;;2.00;2.00;;;;;17.43;65.55;101094.78;4953375;28;47341;-77
2022/10/27 03:30:50;;;;;;;;;3.25;2.50;;;;;17.45;65.43;101088.34;4953451;28;45984;-77
2022/10/27 03:33:15;;;;;;;;;3.25;3.00;;;;;17.45;65.47;101096.31;4936551;28;46196;-76
2022/10/27 03:35:42;;;;;;;;;3.25;2.25;;;;;17.40;65.60;101095.91;4953996;28;45570;-77
2022/10/27 03:38:08;;;;;;;;;3.50;2.25;;;;;17.42;65.33;101101.06;4968466;28;46436;-77
2022/10/27 03:40:33;;;;;;;;;3.00;3.00;;;;;17.35;65.42;101095.47;4953283;28;47124;-77
2022/10/27 03:43:00;;;;;;;;;2.00;2.00;;;;;17.39;65.44;101096.03;4953704;28;45838;-75
2022/10/27 03:45:26;;;;;;;;;1.75;1.75;;;;;17.36;65.51;101099.81;4953691;28;45825;-75
2022/10/27 03:47:59;;;;;;;;;2.50;2.00;;;;;17.34;64.98;101099.09;4953716;28;46422;-77
2022/10/27 03:50:25;;;;;;;;;2.25;2.00;;;;;17.35;65.12;101103.44;4953252;28;46378;-77
2022/10/27 03:52:50;;;;;;;;;2.25;2.25;;;;;17.35;65.14;101090.19;4953620;28;45952;-76
2022/10/27 03:55:15;;;;;;;;;4.00;3.00;;;;;17.33;65.01;101092.13;4953053;28;45550;-76
2022/10/27 03:57:40;;;;;;;;;2.00;2.00;;;;;17.35;65.64;101089.34;4953687;28;45582;-77
2022/10/27 04:00:07;;;;;;;;;1.25;1.25;;;;;17.33;65.49;101094.78;4953368;28;46229;-76
2022/10/27 04:02:32;;;;;;;;;3.50;3.00;;;;;17.32;65.16;101093.13;4953282;28;45562;-77
2022/10/27 04:04:57;;;;;;;;;3.25;3.00;;;;;17.32;65.18;101095.78;4952307;28;45959;-76
2022/10/27 04:07:23;;;;;;;;;2.25;2.25;;;;;17.28;65.31;101089.06;4935614;28;47380;-75
2022/10/27 04:09:48;;;;;;;;;6.00;3.75;;;;;17.29;65.32;101089.91;4953099;28;45628;-76
2022/10/27 04:12:13;;;;;;;;;3.00;3.00;;;;;17.28;65.55;101090.88;4953456;28;45694;-76
2022/10/27 04:14:39;;;;;;;;;5.50;4.00;;;;;17.30;65.10;101099.53;4953387;28;45931;-77
2022/10/27 04:17:04;;;;;;;;;2.00;2.00;;;;;17.29;65.45;101093.38;4953056;28;46433;-77
2022/10/27 04:22:54;;;;;;;;;3.00;3.00;;;;;17.27;65.63;101100.66;4953119;28;45911;-76
2022/10/27 04:25:19;;;;;;;;;3.50;3.00;;;;;17.25;65.64;101099.97;4953071;28;45586;-77
2022/10/27 04:27:45;;;;;;;;;4.00;3.50;;;;;17.27;65.63;101105.13;4952871;28;46467;-77
2022/10/27 04:30:10;;;;;;;;;2.75;2.75;;;;;17.26;65.31;101098.97;4951533;28;47249;-76
2022/10/27 04:32:36;;;;;;;;;4.25;4.00;;;;;17.23;65.63;101096.59;4952997;28;45888;-77
2022/10/27 04:38:23;;;;;;;;;2.00;2.00;;;;;17.20;65.55;101073.06;4952595;28;45622;-77
2022/10/27 04:40:50;;;;;;;;;3.50;3.00;;;;;17.26;65.54;101080.44;4952440;28;46265;-76
2022/10/27 04:43:15;;;;;;;;;4.25;3.00;;;;;17.15;65.30;101062.88;4953545;28;45729;-76
2022/10/27 04:45:41;;;;;;;;;3.00;3.00;;;;;17.27;65.55;101073.34;4956171;28;46060;-76
2022/10/27 04:48:06;;;;;;;;;5.00;4.00;;;;;17.24;65.05;101066.50;4956146;28;45604;-77
2022/10/27 04:50:32;;;;;;;;;3.00;3.00;;;;;17.27;65.44;101079.47;4955880;28;45890;-77
2022/10/27 04:53:00;;;;;;;;;6.00;3.00;;;;;17.25;65.61;101073.47;4956148;28;45726;-77
2022/10/27 04:55:27;;;;;;;;;4.00;4.00;;;;;17.26;65.58;101075.16;4938831;28;45941;-77
2022/10/27 04:57:52;;;;;;;;;3.00;3.00;;;;;17.26;65.26;101069.84;4955746;28;47745;-77
2022/10/27 05:00:17;;;;;;;;;5.00;3.75;;;;;17.27;65.05;101076.00;4955935;28;45630;-77
2022/10/27 05:02:43;;;;;;;;;3.00;2.50;;;;;17.22;65.43;101067.63;4956054;28;45583;-77
2022/10/27 05:05:08;;;;;;;;;2.00;2.00;;;;;17.27;64.99;101084.78;4955851;28;45566;-77
2022/10/27 05:07:35;;;;;;;;;3.25;2.25;;;;;17.26;65.00;101082.25;4955479;28;45860;-77
2022/10/27 05:10:02;;;;;;;;;3.00;3.00;;;;;17.27;65.40;101081.28;4937893;28;48356;-76
2022/10/27 05:12:27;;;;;;;;;4.50;3.00;;;;;17.26;65.10;101077.78;4955635;28;45704;-77
2022/10/27 05:14:53;;;;;;;;;3.00;3.00;;;;;17.25;65.43;101073.47;4955655;28;45748;-77
2022/10/27 05:17:18;;;;;;;;;3.50;3.00;;;;;17.23;65.53;101059.53;4955028;28;47374;-76
2022/10/27 05:23:05;;;;;;;;;5.00;3.75;;;;;17.16;65.48;101056.63;4956255;28;45590;-76
2022/10/27 05:25:31;;;;;;;;;3.75;3.00;;;;;17.18;65.30;101057.31;4955217;28;45802;-76
2022/10/27 05:28:07;;;;;;;;;3.75;3.75;;;;;17.13;65.27;101058.69;4956056;28;46632;-78
2022/10/27 05:30:33;;;;;;;;;4.00;3.75;;;;;17.14;65.29;101061.22;4955842;28;46408;-76
2022/10/27 05:32:59;;;;;;;;;47.00;37.00;;;;;17.10;65.43;101062.47;4956187;28;45699;-77
2022/10/27 05:38:46;;;;;;;;;5.00;4.00;;;;;17.12;65.39;101067.59;4955977;28;45730;-78
2022/10/27 05:41:11;;;;;;;;;7.00;6.00;;;;;17.12;65.29;101059.66;4955997;28;47213;-75
2022/10/27 05:43:40;;;;;;;;;4.50;4.00;;;;;17.03;65.26;101045.47;4956273;28;45766;-76
2022/10/27 05:46:05;;;;;;;;;5.50;5.00;;;;;17.11;65.78;101058.81;4956676;28;45713;-77
2022/10/27 05:48:31;;;;;;;;;8.25;4.25;;;;;17.07;65.34;101052.16;4955415;28;47334;-76
2022/10/27 05:54:18;;;;;;;;;5.25;5.25;;;;;17.12;65.74;101055.22;4955711;28;45681;-76
2022/10/27 05:56:44;;;;;;;;;7.00;5.00;;;;;17.13;65.53;101056.03;4954360;28;45638;-76
2022/10/27 05:59:12;;;;;;;;;5.00;4.50;;;;;17.13;65.86;101045.47;4955339;28;46322;-77
2022/10/27 06:01:37;;;;;;;;;4.00;4.00;;;;;17.13;65.28;101040.16;4956228;28;47117;-75
2022/10/27 06:04:03;;;;;;;;;6.25;5.75;;;;;17.13;65.69;101035.72;4956521;28;45637;-76
2022/10/27 06:09:50;;;;;;;;;13.25;8.75;;;;;17.16;65.97;101024.00;4953727;28;46235;-77
2022/10/27 06:12:15;;;;;;;;;29.75;25.50;;;;;17.20;65.56;101038.63;4938382;28;47396;-77
2022/10/27 06:14:40;;;;;;;;;7.50;6.50;;;;;17.16;65.66;101038.09;4955975;28;45578;-76
2022/10/27 06:17:06;;;;;;;;;6.00;5.00;;;;;17.25;65.65;101048.78;4955600;28;45592;-77
2022/10/27 06:19:31;;;;;;;;;4.50;4.00;;;;;17.26;65.65;101040.72;4955471;28;45696;-75
2022/10/27 06:25:18;;;;;;;;;4.00;4.00;;;;;17.30;66.19;101026.22;4955554;28;45747;-75
2022/10/27 06:27:44;;;;;;;;;7.75;6.00;;;;;17.35;65.43;101025.78;4955329;28;45683;-74
2022/10/27 06:30:10;;;;;;;;;5.00;5.00;;;;;17.36;65.99;101015.03;4955241;28;45657;-74
2022/10/27 06:32:39;;;;;;;;;5.50;5.00;;;;;17.34;66.02;101009.03;4955428;28;46101;-73
2022/10/27 06:35:06;;;;;;;;;7.00;5.00;;;;;17.38;65.47;101013.06;4938221;28;45903;-73
2022/10/27 06:37:31;;;;;;;;;4.00;4.00;;;;;17.39;65.32;101025.34;4954997;28;45879;-77
2022/10/27 06:39:56;;;;;;;;;6.00;5.00;;;;;17.35;65.76;101018.66;4954909;28;45574;-78
2022/10/27 06:42:22;;;;;;;;;6.25;5.25;;;;;17.35;65.65;101020.47;4954418;28;46315;-76
2022/10/27 06:44:47;;;;;;;;;5.75;5.00;;;;;17.30;65.88;101007.66;4955154;28;45649;-78
2022/10/27 06:47:13;;;;;;;;;5.25;5.00;;;;;17.38;65.60;101025.50;4955228;28;45694;-76
2022/10/27 06:49:39;;;;;;;;;6.75;5.00;;;;;17.34;65.26;101018.81;4955127;28;46463;-77
2022/10/27 06:55:27;;;;;;;;;8.50;7.75;;;;;17.37;65.17;101023.84;4955003;28;45749;-74
2022/10/27 06:57:52;;;;;;;;;12.25;11.50;;;;;17.37;65.48;101011.44;4955125;28;45734;-74
2022/10/27 07:00:18;;;;;;;;;6.00;4.00;;;;;17.34;65.20;101011.69;4969505;28;47483;-74
2022/10/27 07:02:44;;;;;;;;;4.00;4.00;;;;;17.36;65.37;101015.03;4969940;28;48380;-74
2022/10/27 07:11:48;;;;;;;;;6.50;6.00;;;;;17.29;65.51;101039.59;4954104;28;45806;-73
2022/10/27 07:14:13;;;;;;;;;5.00;5.00;;;;;17.37;65.40;101051.16;4953553;28;48136;-76
2022/10/27 07:16:38;;;;;;;;;5.50;5.00;;;;;17.34;65.51;101055.88;4954922;28;45639;-76
2022/10/27 07:19:04;;;;;;;;;4.75;4.00;;;;;17.38;65.01;101050.16;4955040;28;45690;-76
2022/10/27 07:24:51;;;;;;;;;6.75;4.25;;;;;17.40;64.97;101056.16;4954419;28;46045;-75
2022/10/27 07:27:16;;;;;;;;;4.75;3.50;;;;;17.43;64.97;101068.31;4954548;28;45908;-74
2022/10/27 07:29:42;;;;;;;;;4.75;4.00;;;;;17.46;65.22;101089.19;4954677;28;45578;-74
2022/10/27 07:32:07;;;;;;;;;5.50;4.75;;;;;17.48;65.13;101101.34;4954542;28;46220;-73
2022/10/27 07:34:32;;;;;;;;;5.00;4.25;;;;;17.46;64.92;101108.59;4954694;28;45934;-74
2022/10/27 07:40:21;;;;;;;;;4.75;4.00;;;;;17.58;65.05;101091.56;4954538;28;45641;-74
2022/10/27 07:42:48;;;;;;;;;5.75;4.75;;;;;17.59;64.71;101084.44;4954746;28;46360;-74
2022/10/27 07:45:17;;;;;;;;;6.50;5.50;;;;;17.63;64.77;101091.16;4954321;28;47227;-74
2022/10/27 07:47:47;;;;;;;;;7.00;5.00;;;;;17.68;65.26;101096.03;4954687;28;46024;-74
2022/10/27 07:50:13;;;;;;;;;7.25;5.75;;;;;17.72;65.17;101100.06;4954623;28;45594;-72
2022/10/27 07:56:00;;;;;;;;;6.00;5.00;;;;;17.77;64.66;101095.16;4954206;28;45687;-74
2022/10/27 07:58:25;;;;;;;;;6.25;6.00;;;;;17.77;64.80;101081.91;4954260;28;45846;-74
2022/10/27 08:00:50;;;;;;;;;6.00;6.00;;;;;17.82;64.73;101085.81;4954147;28;45709;-74
2022/10/27 08:03:25;;;;;;;;;6.75;5.50;;;;;17.85;65.08;101090.00;4954430;28;45621;-74
2022/10/27 08:05:51;;;;;;;;;6.00;5.50;;;;;17.87;64.61;101094.16;4954147;28;46254;-76
2022/10/27 08:08:17;;;;;;;;;6.25;5.00;;;;;17.88;65.07;101101.13;4954363;28;45734;-75
2022/10/27 08:10:44;;;;;;;;;6.50;5.00;;;;;17.91;64.78;101097.38;4954360;28;45825;-75
2022/10/27 08:13:10;;;;;;;;;7.00;6.00;;;;;17.85;64.92;101080.22;4954199;28;46477;-78
2022/10/27 08:15:37;;;;;;;;;6.50;5.00;;;;;17.95;64.34;101096.94;4954177;28;47122;-77
2022/10/27 08:18:02;;;;;;;;;7.25;7.25;;;;;17.98;64.43;101093.13;4954616;28;45677;-76
2022/10/27 08:20:33;;;;;;;;;8.25;6.75;;;;;18.00;64.88;101099.16;4957736;28;45706;-74
2022/10/27 08:26:20;;;;;;;;;7.00;6.75;;;;;18.06;64.33;101103.03;4957161;28;45710;-75
2022/10/27 08:28:47;;;;;;;;;7.00;7.00;;;;;18.07;64.64;101097.59;4957348;28;45794;-74
2022/10/27 08:31:13;;;;;;;;;5.25;5.00;;;;;18.09;64.13;101106.22;4957697;28;45757;-72
2022/10/27 08:33:38;;;;;;;;;6.75;5.75;;;;;18.06;64.33;101098.56;4957639;28;45726;-75
2022/10/27 08:36:04;;;;;;;;;5.00;5.00;;;;;18.14;64.74;101103.97;4957233;28;46067;-74
2022/10/27 08:38:31;;;;;;;;;8.75;7.00;;;;;18.14;64.83;101100.50;4957215;28;45679;-73
2022/10/27 08:41:16;;;;;;;;;5.75;5.25;;;;;18.20;64.32;101108.69;4957448;28;45554;-74
2022/10/27 08:44:14;;;;;;;;;7.75;5.00;;;;;18.23;64.10;101111.06;4956985;28;46790;-74
2022/10/27 08:46:49;;;;;;;;;7.25;7.00;;;;;18.24;64.09;101118.06;4956891;28;47567;-74
2022/10/27 08:49:27;;;;;;;;;7.00;5.50;;;;;18.27;64.61;101107.13;4957003;28;45722;-74
2022/10/27 08:51:56;;;;;;;;;9.50;9.00;;;;;18.19;64.31;101099.06;4956986;28;45686;-74
2022/10/27 08:54:24;;;;;;;;;8.00;7.00;;;;;18.31;64.27;101118.28;4956777;28;47521;-73
2022/10/27 08:56:53;;;;;;;;;6.50;6.00;;;;;18.36;64.28;101124.81;4956457;28;46043;-74
2022/10/27 08:59:22;;;;;;;;;8.75;7.00;;;;;18.36;63.98;101116.03;4956750;28;45651;-74
2022/10/27 09:02:12;;;;;;;;;7.00;6.00;;;;;18.41;63.77;101119.91;4957130;28;45646;-74
2022/10/27 09:05:25;;;;;;;;;6.50;5.75;;;;;18.43;64.43;101117.97;4956750;28;46357;-73
2022/10/27 09:07:59;;;;;;;;;7.75;6.25;;;;;18.48;64.16;101130.78;4877886;29;46379;-74
2022/10/27 09:10:41;;;;;;;;;8.00;7.00;;;;;18.52;64.24;101134.81;4877566;29;45587;-76
2022/10/27 09:13:23;;;;;;;;;8.00;7.25;;;;;18.57;63.85;101139.72;4878383;29;45816;-75
2022/10/27 09:15:56;;;;;;;;;8.25;7.00;;;;;18.60;64.08;101134.94;4877962;29;45789;-76
2022/10/27 09:18:27;;;;;;;;;7.75;7.50;;;;;18.66;63.92;101131.72;4877510;29;46161;-74
2022/10/27 09:20:58;;;;;;;;;9.50;9.00;;;;;18.71;64.15;101128.59;4877504;29;45548;-75
2022/10/27 09:23:27;;;;;;;;;7.00;6.50;;;;;18.75;63.36;101129.97;4877975;29;45956;-75
2022/10/27 09:25:53;;;;;;;;;8.75;6.25;;;;;18.77;63.63;101135.97;4877656;29;45675;-75
2022/10/27 09:28:26;;;;;;;;;9.75;8.25;;;;;18.81;63.64;101140.00;4877420;29;47157;-74
2022/10/27 09:30:52;;;;;;;;;7.75;7.00;;;;;18.86;63.85;101149.19;4876990;29;45916;-75
2022/10/27 09:33:21;;;;;;;;;6.00;5.50;;;;;18.90;63.71;101144.41;4877939;29;45647;-74
2022/10/27 09:35:49;;;;;;;;;8.25;6.75;;;;;18.95;63.51;101154.59;4877736;29;46513;-74
2022/10/27 09:38:21;;;;;;;;;7.25;6.50;;;;;18.92;63.72;101144.25;4877249;29;46419;-78
2022/10/27 09:40:46;;;;;;;;;7.50;6.75;;;;;19.00;63.04;101145.16;4885687;28;45785;-75
2022/10/27 09:43:12;;;;;;;;;6.00;6.00;;;;;19.05;63.17;101147.41;4937005;28;45775;-75
2022/10/27 09:45:37;;;;;;;;;7.00;5.00;;;;;19.00;63.20;101133.75;4937247;28;46288;-76
2022/10/27 09:48:09;;;;;;;;;7.00;7.00;;;;;19.14;62.96;101154.44;4937296;28;46507;-74
2022/10/27 09:50:59;;;;;;;;;6.75;6.75;;;;;19.18;63.15;101143.38;4937226;28;45526;-76
2022/10/27 09:53:35;;;;;;;;;8.00;6.00;;;;;19.23;63.27;101132.28;4937719;28;45747;-77
2022/10/27 09:56:00;;;;;;;;;8.00;7.00;;;;;19.26;62.86;101116.91;4937073;28;45542;-76
2022/10/27 09:58:26;;;;;;;;;6.25;5.00;;;;;19.30;62.65;101112.09;4936578;28;46652;-76
2022/10/27 10:00:59;;;;;;;;;8.00;7.00;;;;;19.33;62.46;101111.78;4936643;28;46103;-77
2022/10/27 10:03:25;;;;;;;;;7.75;6.75;;;;;19.34;62.77;101110.78;4936673;28;45736;-74
2022/10/27 10:06:02;;;;;;;;;7.50;6.25;;;;;19.45;62.81;101123.03;4936637;28;46588;-75
2022/10/27 10:08:34;;;;;;;;;6.50;6.50;;;;;19.49;62.67;101121.75;4936518;28;45994;-75
2022/10/27 10:11:05;;;;;;;;;5.75;5.75;;;;;19.54;62.60;101132.78;4946662;28;46070;-76
2022/10/27 10:13:32;;;;;;;;;3.50;3.25;;;;;19.58;62.37;101139.44;4955931;28;45712;-76
2022/10/27 10:16:11;;;;;;;;;8.00;7.25;;;;;19.64;62.56;101138.84;4955648;28;45729;-77
2022/10/27 10:18:39;;;;;;;;;8.50;7.50;;;;;19.67;62.32;101141.16;4955528;28;45899;-77
2022/10/27 10:21:07;;;;;;;;;7.25;5.50;;;;;19.73;62.15;101137.06;4955718;28;45612;-75
2022/10/27 10:23:50;;;;;;;;;7.25;7.00;;;;;19.77;62.21;101143.72;4955977;28;45599;-75
2022/10/27 10:26:28;;;;;;;;;7.75;6.75;;;;;19.77;62.06;101125.94;4955199;28;46678;-76
2022/10/27 10:29:26;;;;;;;;;8.00;6.50;;;;;19.85;61.91;101154.44;4955160;28;47019;-75
2022/10/27 10:32:06;;;;;;;;;7.50;6.50;;;;;19.87;61.86;101142.63;4876663;29;45922;-75
2022/10/27 10:34:33;;;;;;;;;9.00;8.50;;;;;19.93;61.96;101144.66;4876779;29;46008;-76
2022/10/27 10:40:25;;;;;;;;;5.75;5.00;;;;;20.05;61.81;101150.56;4876166;29;45998;-73
2022/10/27 10:43:16;;;;;;;;;5.00;4.75;;;;;20.07;61.66;101148.59;4876251;29;45808;-75
2022/10/27 10:45:41;;;;;;;;;9.00;8.00;;;;;20.15;61.52;101156.63;4876728;29;45848;-74
2022/10/27 10:48:25;;;;;;;;;8.25;8.00;;;;;20.16;61.35;101152.97;4876315;29;46508;-75
2022/10/27 10:50:52;;;;;;;;;9.00;8.00;;;;;20.22;61.60;101148.84;4876137;29;46247;-74
2022/10/27 10:56:39;;;;;;;;;9.00;7.50;;;;;20.25;61.07;101130.72;4876345;29;45770;-74
2022/10/27 10:59:08;;;;;;;;;8.00;7.00;;;;;20.36;61.46;101133.13;4876057;29;46743;-74
2022/10/27 11:01:44;;;;;;;;;8.75;6.75;;;;;20.39;61.06;101132.84;4876113;29;46287;-74
2022/10/27 11:04:17;;;;;;;;;9.00;7.00;;;;;20.42;60.91;101140.50;4876499;29;45789;-75
2022/10/27 11:11:14;;;;;;;;;9.50;7.00;;;;;20.56;60.75;101149.72;4953948;28;45728;-74
2022/10/27 11:14:04;;;;;;;;;6.00;5.00;;;;;20.61;61.06;101136.75;4955026;28;45774;-75
2022/10/27 11:16:32;;;;;;;;;8.50;7.00;;;;;20.65;60.40;101124.78;4954732;28;45653;-75
2022/10/27 11:19:04;;;;;;;;;8.50;7.25;;;;;20.69;60.51;101111.97;4954507;28;46035;-73
2022/10/27 11:21:47;;;;;;;;;7.00;6.00;;;;;20.73;60.45;101108.81;4954572;28;47858;-74
2022/10/27 11:27:54;;;;;;;;;6.75;6.25;;;;;20.79;60.43;101116.16;4954425;28;45680;-78
2022/10/27 11:30:24;;;;;;;;;6.25;5.50;;;;;20.82;60.40;101115.00;4954804;28;45570;-75
2022/10/27 11:32:50;;;;;;;;;4.00;4.00;;;;;20.87;60.29;101113.53;4954316;28;45941;-77
2022/10/27 11:35:19;;;;;;;;;6.75;5.75;;;;;20.93;60.37;101109.38;4954510;28;46030;-76
2022/10/27 11:37:52;;;;;;;;;7.00;6.00;;;;;21.01;59.84;101100.53;4954154;28;45753;-74
2022/10/27 11:40:26;;;;;;;;;6.75;6.25;;;;;21.01;60.05;101098.72;4954588;28;45544;-74
2022/10/27 11:43:03;;;;;;;;;7.50;6.00;;;;;21.15;59.79;101110.59;4954524;28;46523;-74
2022/10/27 11:45:41;;;;;;;;;6.00;5.00;;;;;21.20;59.85;101117.09;4954578;28;45703;-74
2022/10/27 11:48:30;;;;;;;;;8.00;6.50;;;;;21.24;59.50;101110.44;4968247;28;45742;-77
2022/10/27 11:51:17;;;;;;;;;5.50;5.00;;;;;21.24;59.78;101101.59;4932805;28;45644;-76
2022/10/27 11:53:42;;;;;;;;;5.50;5.50;;;;;21.31;59.29;101113.28;4935176;28;46809;-75
2022/10/27 11:56:43;;;;;;;;;7.50;6.75;;;;;21.34;59.41;101103.09;4920006;28;47161;-78
2022/10/27 12:00:01;;;;;;;;;6.00;5.75;;;;;21.38;58.94;101100.13;4878733;29;46218;-76
2022/10/27 12:02:38;;;;;;;;;7.25;6.00;;;;;21.42;58.82;101096.94;4819045;29;45598;-75
2022/10/27 12:05:11;;;;;;;;;8.25;4.25;;;;;21.45;58.71;101098.44;4823280;29;46516;-77
2022/10/27 12:11:45;;;;;;;;;6.00;5.50;;;;;21.52;58.82;101089.59;4823249;29;45901;-76
2022/10/27 12:14:22;;;;;;;;;5.50;5.25;;;;;21.56;58.23;101100.75;4768538;29;46083;-77
2022/10/27 12:16:56;;;;;;;;;6.00;5.50;;;;;21.56;58.45;101108.75;4768123;29;46809;-76
2022/10/27 12:19:28;;;;;;;;;6.00;5.00;;;;;21.59;58.37;101116.44;4768180;29;45992;-74
2022/10/27 12:22:05;;;;;;;;;7.00;5.25;;;;;21.61;58.39;101098.41;4768523;29;45927;-75
2022/10/27 12:27:56;;;;;;;;;6.25;5.50;;;;;21.68;58.24;101094.09;4751996;29;46063;-76
2022/10/27 12:30:23;;;;;;;;;5.75;4.75;;;;;21.71;58.19;101091.91;4732543;30;46437;-76
2022/10/27 12:33:05;;;;;;;;;8.50;5.50;;;;;21.69;57.22;101090.44;4732446;30;45678;-78
2022/10/27 12:35:57;;;;;;;;;5.00;5.00;;;;;21.75;57.83;101089.75;4748582;29;45912;-77
2022/10/27 12:42:05;;;;;;;;;6.00;5.50;;;;;21.81;57.10;101085.56;4878519;29;45967;-76
2022/10/27 12:44:40;;;;;;;;;8.00;6.00;;;;;21.85;57.01;101094.91;4878516;29;45792;-75
2022/10/27 12:47:43;;;;;;;;;9.25;9.25;;;;;21.79;56.94;101080.41;4878285;29;45653;-79
2022/10/27 12:50:48;;;;;;;;;5.00;4.50;;;;;21.88;57.42;101090.03;4874416;28;46979;-77
2022/10/27 12:53:22;;;;;;;;;7.25;6.00;;;;;21.93;57.30;101094.84;4952490;28;47041;-75
2022/10/27 12:55:50;;;;;;;;;5.00;5.00;;;;;21.94;56.96;101092.06;4937572;28;45809;-78
2022/10/27 12:58:40;;;;;;;;;7.25;6.00;;;;;21.98;56.75;101084.53;4937643;28;45864;-77
2022/10/27 13:01:34;;;;;;;;;6.25;5.75;;;;;21.97;57.02;101072.22;4938000;28;45594;-76
2022/10/27 13:04:37;;;;;;;;;6.00;5.75;;;;;22.04;56.75;101066.00;4937216;28;46204;-75
2022/10/27 13:07:14;;;;;;;;;6.00;5.75;;;;;22.07;56.85;101067.50;4937961;28;45806;-74
2022/10/27 13:10:26;;;;;;;;;3.50;3.50;;;;;22.11;57.25;101066.16;4937465;28;45887;-74
2022/10/27 13:13:24;;;;;;;;;6.25;5.00;;;;;22.15;57.15;101054.97;4928519;28;47275;-73
2022/10/27 13:16:12;;;;;;;;;7.00;5.75;;;;;22.22;57.16;101038.25;4934646;28;46335;-75
2022/10/27 13:18:47;;;;;;;;;8.75;7.75;;;;;22.27;56.40;101044.72;4935024;28;45619;-75
2022/10/27 13:21:33;;;;;;;;;8.25;6.25;;;;;22.35;56.79;101033.19;4935146;28;45939;-75